createdAt,value
2018-04-22T00:01:52.283Z,13.89
2018-04-22T00:04:20.742Z,13.90
2018-04-22T00:06:49.250Z,13.86
2018-04-22T00:09:17.916Z,13.80
2018-04-22T00:11:46.221Z,13.62
2018-04-22T00:14:15.287Z,13.46
2018-04-22T00:16:44.031Z,13.38
2018-04-22T00:19:12.323Z,13.32
2018-04-22T00:21:41.306Z,13.30
2018-04-22T00:24:09.659Z,13.26
2018-04-22T00:26:38.563Z,13.26
2018-04-22T00:29:06.852Z,13.18
2018-04-22T00:31:35.176Z,13.14
2018-04-22T00:34:03.464Z,13.10
2018-04-22T00:36:31.750Z,13.19
2018-04-22T00:39:00.087Z,13.18
2018-04-22T00:41:28.379Z,13.19
2018-04-22T00:43:56.667Z,13.22
2018-04-22T00:46:24.979Z,13.16
2018-04-22T00:48:53.277Z,13.14
2018-04-22T00:51:21.567Z,13.00
2018-04-22T00:54:07.795Z,12.88
2018-04-22T00:56:36.781Z,12.86
2018-04-22T00:59:05.531Z,12.89
2018-04-22T01:01:33.864Z,12.97
2018-04-22T01:04:02.379Z,12.89
2018-04-22T01:06:30.676Z,12.69
2018-04-22T01:08:59.201Z,12.57
2018-04-22T01:11:28.299Z,12.53
2018-04-22T01:13:56.652Z,12.72
2018-04-22T01:16:24.957Z,12.74
2018-04-22T01:18:53.259Z,12.69
2018-04-22T01:21:21.622Z,12.57
2018-04-22T01:23:49.923Z,12.36
2018-04-22T01:26:18.219Z,12.23
2018-04-22T01:28:46.533Z,12.27
2018-04-22T01:31:14.827Z,12.15
2018-04-22T01:33:43.302Z,12.11
2018-04-22T01:36:11.591Z,12.15
2018-04-22T01:38:40.031Z,12.15
2018-04-22T01:41:08.699Z,12.29
2018-04-22T01:43:37.023Z,12.32
2018-04-22T01:46:05.376Z,12.16
2018-04-22T01:48:33.767Z,12.07
2018-04-22T01:51:02.055Z,11.96
2018-04-22T01:53:30.398Z,12.01
2018-04-22T01:55:58.687Z,12.16
2018-04-22T01:58:26.978Z,12.10
2018-04-22T02:00:55.302Z,11.97
2018-04-22T02:03:24.422Z,11.82
2018-04-22T02:05:52.732Z,11.82
2018-04-22T02:08:21.459Z,11.95
2018-04-22T02:10:49.859Z,12.02
2018-04-22T02:13:18.794Z,11.90
2018-04-22T02:15:47.115Z,11.76
2018-04-22T02:18:15.583Z,11.73
2018-04-22T02:20:44.017Z,11.68
2018-04-22T02:23:12.346Z,11.55
2018-04-22T02:25:40.674Z,11.63
2018-04-22T02:30:42.875Z,11.56
2018-04-22T02:33:11.173Z,11.53
2018-04-22T02:35:41.259Z,11.50
2018-04-22T02:38:09.542Z,11.54
2018-04-22T02:40:37.834Z,11.52
2018-04-22T02:43:06.187Z,11.30
2018-04-22T02:45:34.477Z,11.28
2018-04-22T02:48:02.778Z,11.24
2018-04-22T02:50:31.743Z,11.11
2018-04-22T02:53:00.831Z,11.11
2018-04-22T02:55:29.151Z,11.15
2018-04-22T02:57:57.475Z,11.30
2018-04-22T03:00:25.765Z,11.25
2018-04-22T03:02:54.063Z,11.16
2018-04-22T03:05:22.383Z,11.07
2018-04-22T03:07:50.679Z,11.02
2018-04-22T03:10:19.819Z,10.91
2018-04-22T03:12:48.135Z,10.84
2018-04-22T03:15:16.776Z,10.87
2018-04-22T03:17:45.191Z,10.85
2018-04-22T03:20:13.522Z,10.80
2018-04-22T03:22:41.814Z,10.77
2018-04-22T03:25:10.107Z,10.76
2018-04-22T03:27:38.440Z,11.01
2018-04-22T03:30:06.731Z,10.95
2018-04-22T03:32:35.037Z,11.03
2018-04-22T03:35:03.794Z,11.09
2018-04-22T03:37:32.515Z,11.12
2018-04-22T03:40:00.834Z,10.97
2018-04-22T03:42:29.342Z,10.90
2018-04-22T03:44:57.679Z,10.84
2018-04-22T03:47:25.972Z,10.78
2018-04-22T03:49:54.691Z,10.87
2018-04-22T03:52:23.056Z,10.81
2018-04-22T03:54:53.082Z,10.85
2018-04-22T03:57:21.375Z,10.96
2018-04-22T03:59:49.687Z,10.95
2018-04-22T04:02:17.971Z,10.79
2018-04-22T04:04:46.264Z,10.69
2018-04-22T04:07:14.602Z,10.80
2018-04-22T04:09:43.663Z,10.84
2018-04-22T04:12:11.947Z,10.78
2018-04-22T04:14:40.551Z,10.75
2018-04-22T04:17:08.867Z,10.66
2018-04-22T04:19:55.057Z,10.70
2018-04-22T04:22:40.907Z,10.78
2018-04-22T04:25:39.351Z,10.64
2018-04-22T04:28:07.646Z,10.55
2018-04-22T04:30:35.947Z,10.54
2018-04-22T04:33:05.875Z,10.62
2018-04-22T04:35:34.158Z,10.60
2018-04-22T04:38:03.253Z,10.58
2018-04-22T04:40:31.540Z,10.59
2018-04-22T04:43:00.067Z,10.63
2018-04-22T04:45:28.467Z,10.80
2018-04-22T04:47:58.296Z,10.93
2018-04-22T04:50:27.383Z,11.05
2018-04-22T04:52:55.662Z,11.11
2018-04-22T04:55:23.960Z,11.14
2018-04-22T04:57:53.039Z,11.24
2018-04-22T05:00:22.141Z,11.45
2018-04-22T05:02:51.302Z,11.79
2018-04-22T05:05:19.599Z,12.12
2018-04-22T05:07:47.985Z,12.36
2018-04-22T05:10:16.315Z,12.61
2018-04-22T05:12:44.599Z,12.99
2018-04-22T05:15:12.884Z,13.53
2018-04-22T05:17:42.027Z,14.60
2018-04-22T05:20:10.335Z,15.26
2018-04-22T05:22:39.768Z,15.50
2018-04-22T05:25:08.115Z,16.18
2018-04-22T05:27:36.277Z,16.91
2018-04-22T05:30:04.710Z,16.39
2018-04-22T05:32:33.111Z,16.28
2018-04-22T05:35:01.400Z,16.35
2018-04-22T05:37:29.691Z,16.74
2018-04-22T05:39:58.044Z,17.42
2018-04-22T05:42:27.395Z,17.70
2018-04-22T05:44:55.689Z,18.22
2018-04-22T05:47:24.008Z,18.11
2018-04-22T05:49:52.338Z,18.15
2018-04-22T05:52:21.175Z,18.94
2018-04-22T05:54:49.563Z,19.25
2018-04-22T05:57:17.855Z,18.79
2018-04-22T05:59:46.619Z,18.92
2018-04-22T06:02:15.308Z,19.09
2018-04-22T06:04:43.623Z,19.39
2018-04-22T06:07:11.940Z,20.06
2018-04-22T06:09:40.235Z,20.59
2018-04-22T06:12:09.287Z,21.26
2018-04-22T06:14:38.240Z,20.67
2018-04-22T06:17:07.100Z,20.90
2018-04-22T06:19:35.564Z,21.38
2018-04-22T06:22:03.757Z,21.69
2018-04-22T06:24:32.047Z,22.11
2018-04-22T06:27:00.355Z,22.67
2018-04-22T06:29:28.703Z,23.00
2018-04-22T06:31:57.751Z,22.90
2018-04-22T06:34:26.043Z,23.00
2018-04-22T06:36:55.209Z,23.74
2018-04-22T06:39:23.507Z,23.84
2018-04-22T06:41:52.563Z,24.62
2018-04-22T06:44:20.892Z,23.67
2018-04-22T06:46:49.183Z,23.54
2018-04-22T06:49:17.514Z,23.76
2018-04-22T06:51:45.824Z,23.32
2018-04-22T06:54:14.160Z,22.12
2018-04-22T06:56:43.747Z,22.81
2018-04-22T06:59:11.895Z,23.52
2018-04-22T07:01:40.254Z,23.00
2018-04-22T07:04:08.566Z,22.81
2018-04-22T07:06:36.863Z,22.35
2018-04-22T07:09:05.279Z,23.27
2018-04-22T07:11:34.509Z,24.57
2018-04-22T07:14:02.791Z,25.27
2018-04-22T07:16:31.456Z,25.71
2018-04-22T07:18:59.747Z,25.33
2018-04-22T07:21:28.516Z,24.66
2018-04-22T07:23:56.896Z,25.64
2018-04-22T07:26:25.151Z,25.60
2018-04-22T07:28:53.449Z,25.41
2018-04-22T07:31:21.911Z,25.52
2018-04-22T07:33:50.203Z,26.26
2018-04-22T07:36:19.031Z,28.56
2018-04-22T07:38:47.384Z,28.16
2018-04-22T07:41:15.671Z,27.70
2018-04-22T07:43:43.959Z,28.11
2018-04-22T07:46:12.362Z,27.89
2018-04-22T07:48:40.662Z,28.61
2018-04-22T07:51:08.953Z,28.48
2018-04-22T07:53:37.275Z,28.27
2018-04-22T07:56:05.599Z,29.09
2018-04-22T07:58:34.870Z,29.02
2018-04-22T08:01:03.247Z,30.64
2018-04-22T08:03:31.553Z,31.27
2018-04-22T08:06:00.377Z,31.83
2018-04-22T08:08:29.103Z,33.11
2018-04-22T08:10:57.736Z,33.81
2018-04-22T08:13:26.873Z,33.28
2018-04-22T08:15:56.538Z,32.15
2018-04-22T08:18:25.875Z,32.11
2018-04-22T08:20:54.686Z,32.75
2018-04-22T08:23:23.071Z,31.96
2018-04-22T08:25:51.358Z,33.14
2018-04-22T08:28:19.763Z,35.22
2018-04-22T08:30:48.880Z,33.56
2018-04-22T08:33:17.191Z,31.21
2018-04-22T08:35:45.695Z,31.45
2018-04-22T08:38:14.238Z,29.97
2018-04-22T08:40:43.011Z,29.43
2018-04-22T08:43:11.350Z,30.26
2018-04-22T08:45:40.280Z,30.82
2018-04-22T08:48:08.574Z,30.74
2018-04-22T08:50:39.287Z,31.14
2018-04-22T08:53:08.316Z,34.46
2018-04-22T08:55:36.617Z,33.49
2018-04-22T08:58:04.955Z,31.49
2018-04-22T09:00:33.756Z,30.68
2018-04-22T09:03:02.935Z,30.75
2018-04-22T09:05:31.291Z,29.92
2018-04-22T09:07:59.669Z,30.91
2018-04-22T09:10:27.968Z,33.77
2018-04-22T09:12:56.315Z,36.05
2018-04-22T09:15:24.606Z,36.82
2018-04-22T09:17:54.495Z,37.87
2018-04-22T09:20:22.930Z,37.39
2018-04-22T09:22:52.319Z,38.33
2018-04-22T09:25:20.707Z,37.47
2018-04-22T09:27:49.823Z,37.61
2018-04-22T09:30:19.010Z,37.88
2018-04-22T09:32:47.325Z,37.95
2018-04-22T09:35:15.654Z,38.90
2018-04-22T09:37:44.735Z,40.07
2018-04-22T09:40:13.027Z,38.15
2018-04-22T09:42:41.751Z,39.62
2018-04-22T09:45:10.065Z,40.79
2018-04-22T09:47:38.354Z,42.88
2018-04-22T09:50:06.819Z,43.08
2018-04-22T09:52:35.123Z,41.84
2018-04-22T09:55:03.416Z,41.01
2018-04-22T09:57:31.904Z,42.26
2018-04-22T10:00:01.081Z,40.29
2018-04-22T10:02:33.363Z,38.08
2018-04-22T10:05:08.292Z,39.34
2018-04-22T10:07:37.398Z,40.68
2018-04-22T10:10:06.452Z,40.30
2018-04-22T10:12:35.296Z,40.95
2018-04-22T10:15:04.099Z,40.87
2018-04-22T10:17:32.398Z,42.45
2018-04-22T10:20:00.694Z,41.23
2018-04-22T10:22:29.445Z,39.07
2018-04-22T10:24:58.258Z,40.38
2018-04-22T10:27:26.583Z,40.27
2018-04-22T10:29:54.908Z,40.01
2018-04-22T10:32:23.196Z,37.71
2018-04-22T10:34:51.487Z,38.50
2018-04-22T10:37:19.815Z,38.08
2018-04-22T10:39:48.107Z,36.75
2018-04-22T10:42:16.467Z,36.92
2018-04-22T10:44:44.803Z,36.76
2018-04-22T10:47:13.087Z,35.71
2018-04-22T10:49:41.385Z,38.75
2018-04-22T10:52:10.726Z,38.48
2018-04-22T10:54:40.635Z,40.92
2018-04-22T10:57:08.930Z,43.09
2018-04-22T10:59:37.318Z,41.06
2018-04-22T11:02:05.666Z,40.24
2018-04-22T11:04:34.494Z,40.27
2018-04-22T11:07:02.756Z,40.45
2018-04-22T11:09:31.063Z,41.18
2018-04-22T11:11:59.387Z,40.70
2018-04-22T11:14:27.677Z,41.53
2018-04-22T11:16:56.037Z,42.99
2018-04-22T11:19:24.303Z,42.33
2018-04-22T11:21:52.630Z,42.49
2018-04-22T11:24:20.916Z,44.67
2018-04-22T11:26:49.118Z,43.95
2018-04-22T11:29:17.427Z,43.69
2018-04-22T11:31:45.715Z,41.07
2018-04-22T11:34:14.062Z,38.73
2018-04-22T11:36:42.519Z,37.87
2018-04-22T11:39:10.887Z,37.96
2018-04-22T11:41:39.227Z,37.69
2018-04-22T11:44:07.512Z,36.88
2018-04-22T11:46:36.310Z,37.28
2018-04-22T11:49:04.619Z,35.24
2018-04-22T11:51:32.899Z,31.69
2018-04-22T11:54:01.237Z,33.53
2018-04-22T11:56:30.232Z,34.82
2018-04-22T11:58:59.104Z,36.01
2018-04-22T12:01:27.422Z,37.65
2018-04-22T12:03:55.711Z,37.55
2018-04-22T12:06:24.011Z,37.03
2018-04-22T12:08:52.323Z,37.89
2018-04-22T12:11:20.814Z,37.39
2018-04-22T12:13:49.099Z,37.81
2018-04-22T12:16:17.423Z,36.38
2018-04-22T12:18:45.714Z,36.60
2018-04-22T12:21:13.767Z,35.04
2018-04-22T12:23:43.238Z,37.82
2018-04-22T12:26:11.522Z,39.06
2018-04-22T12:28:39.997Z,36.93
2018-04-22T12:31:08.775Z,38.34
2018-04-22T12:33:37.059Z,36.64
2018-04-22T12:36:05.367Z,33.64
2018-04-22T12:38:33.710Z,31.45
2018-04-22T12:41:02.104Z,30.08
2018-04-22T12:43:30.404Z,30.19
2018-04-22T12:45:58.727Z,31.51
2018-04-22T12:48:27.585Z,32.45
2018-04-22T12:50:55.877Z,34.32
2018-04-22T12:53:24.203Z,35.74
2018-04-22T12:55:52.491Z,35.67
2018-04-22T12:58:20.775Z,35.64
2018-04-22T13:00:49.873Z,34.52
2018-04-22T13:03:18.925Z,38.24
2018-04-22T13:05:47.203Z,37.98
2018-04-22T13:08:15.575Z,35.61
2018-04-22T13:10:43.867Z,36.05
2018-04-22T13:13:12.155Z,39.13
2018-04-22T13:15:40.513Z,40.76
2018-04-22T13:18:08.914Z,43.16
2018-04-22T13:20:37.383Z,42.79
2018-04-22T13:23:05.731Z,41.26
2018-04-22T13:25:34.016Z,42.53
2018-04-22T13:28:02.427Z,43.68
2018-04-22T13:30:30.750Z,40.89
2018-04-22T13:32:59.043Z,40.23
2018-04-22T13:35:27.959Z,41.31
2018-04-22T13:37:56.283Z,41.19
2018-04-22T13:40:24.571Z,41.26
2018-04-22T13:42:52.867Z,42.30
2018-04-22T13:45:21.208Z,41.30
2018-04-22T13:47:49.500Z,39.97
2018-04-22T13:50:17.787Z,41.16
2018-04-22T13:52:46.596Z,38.58
2018-04-22T13:55:14.895Z,39.29
2018-04-22T13:57:43.279Z,39.55
2018-04-22T14:00:11.598Z,39.21
2018-04-22T14:02:39.879Z,41.14
2018-04-22T14:05:08.171Z,37.55
2018-04-22T14:07:36.588Z,40.30
2018-04-22T14:10:04.875Z,40.12
2018-04-22T14:12:33.978Z,39.51
2018-04-22T14:15:03.015Z,41.69
2018-04-22T14:17:31.200Z,38.34
2018-04-22T14:20:00.388Z,36.71
2018-04-22T14:22:28.675Z,32.93
2018-04-22T14:24:57.803Z,32.28
2018-04-22T14:27:27.256Z,34.67
2018-04-22T14:29:55.680Z,34.35
2018-04-22T14:32:24.438Z,33.96
2018-04-22T14:34:53.999Z,36.51
2018-04-22T14:37:22.323Z,37.09
2018-04-22T14:39:51.443Z,36.60
2018-04-22T14:42:19.731Z,37.65
2018-04-22T14:45:05.537Z,33.53
2018-04-22T14:47:34.592Z,32.97
2018-04-22T14:50:04.147Z,32.13
2018-04-22T14:52:32.543Z,31.45
2018-04-22T14:55:00.983Z,31.96
2018-04-22T14:57:29.635Z,32.98
2018-04-22T14:59:58.135Z,32.32
2018-04-22T15:02:26.416Z,32.91
2018-04-22T15:04:54.795Z,33.59
2018-04-22T15:07:23.114Z,34.51
2018-04-22T15:09:52.878Z,34.14
2018-04-22T15:12:21.175Z,33.15
2018-04-22T15:14:49.571Z,34.11
2018-04-22T15:17:17.871Z,33.62
2018-04-22T15:19:46.151Z,31.88
2018-04-22T15:22:14.481Z,32.63
2018-04-22T15:24:42.776Z,33.20
2018-04-22T15:27:11.284Z,32.45
2018-04-22T15:29:39.926Z,30.63
2018-04-22T15:32:08.224Z,31.26
2018-04-22T15:34:36.571Z,30.75
2018-04-22T15:37:04.903Z,31.80
2018-04-22T15:39:33.200Z,32.55
2018-04-22T15:42:01.487Z,33.17
2018-04-22T15:44:30.580Z,32.97
2018-04-22T15:46:58.875Z,31.97
2018-04-22T15:49:27.782Z,32.67
2018-04-22T15:51:56.876Z,32.45
2018-04-22T15:54:25.166Z,32.28
2018-04-22T15:56:53.464Z,33.65
2018-04-22T15:59:22.584Z,34.56
2018-04-22T16:01:50.879Z,35.31
2018-04-22T16:04:19.349Z,34.67
2018-04-22T16:06:48.266Z,34.67
2018-04-22T16:09:16.551Z,34.18
2018-04-22T16:11:45.033Z,34.36
2018-04-22T16:14:14.080Z,33.04
2018-04-22T16:16:42.697Z,31.93
2018-04-22T16:19:11.511Z,32.14
2018-04-22T16:21:39.950Z,33.00
2018-04-22T16:24:08.932Z,32.33
2018-04-22T16:26:37.543Z,32.27
2018-04-22T16:29:05.830Z,32.34
2018-04-22T16:31:34.115Z,32.15
2018-04-22T16:34:02.443Z,31.76
2018-04-22T16:36:30.734Z,32.00
2018-04-22T16:38:59.087Z,31.96
2018-04-22T16:41:28.693Z,31.91
2018-04-22T16:43:57.282Z,32.03
2018-04-22T16:46:25.595Z,31.98
2018-04-22T16:48:53.880Z,31.22
2018-04-22T16:51:22.787Z,30.63
2018-04-22T16:53:51.071Z,30.17
2018-04-22T16:56:20.251Z,29.71
2018-04-22T16:58:48.790Z,29.40
2018-04-22T17:01:17.136Z,28.61
2018-04-22T17:03:45.367Z,27.94
2018-04-22T17:06:15.093Z,27.53
2018-04-22T17:08:43.387Z,27.20
2018-04-22T17:11:11.667Z,26.87
2018-04-22T17:13:40.663Z,26.69
2018-04-22T17:16:08.967Z,26.49
2018-04-22T17:18:37.260Z,26.27
2018-04-22T17:21:05.910Z,26.17
2018-04-22T17:23:34.981Z,26.00
2018-04-22T17:26:04.298Z,25.77
2018-04-22T17:28:32.795Z,25.59
2018-04-22T17:31:01.086Z,25.40
2018-04-22T17:33:29.384Z,25.14
2018-04-22T17:35:57.743Z,24.96
2018-04-22T17:38:26.030Z,24.77
2018-04-22T17:40:54.311Z,24.64
2018-04-22T17:43:23.391Z,24.43
2018-04-22T17:45:52.443Z,24.14
2018-04-22T17:48:20.732Z,24.04
2018-04-22T17:50:49.177Z,23.94
2018-04-22T17:53:17.476Z,23.69
2018-04-22T17:55:46.299Z,23.43
2018-04-22T17:58:14.624Z,23.33
2018-04-22T18:00:42.921Z,23.33
2018-04-22T18:03:11.203Z,23.24
2018-04-22T18:05:39.526Z,23.21
2018-04-22T18:08:07.814Z,23.17
2018-04-22T18:10:36.808Z,22.99
2018-04-22T18:13:05.237Z,22.82
2018-04-22T18:15:33.527Z,22.56
2018-04-22T18:18:02.620Z,22.42
2018-04-22T18:20:30.976Z,22.24
2018-04-22T18:22:59.263Z,22.11
2018-04-22T18:25:28.051Z,22.07
2018-04-22T18:27:56.488Z,22.23
2018-04-22T18:30:24.847Z,22.24
2018-04-22T18:32:54.538Z,22.70
2018-04-22T18:35:22.868Z,22.09
2018-04-22T18:37:52.729Z,22.03
2018-04-22T18:40:21.023Z,21.97
2018-04-22T18:42:49.579Z,21.67
2018-04-22T18:45:18.290Z,21.47
2018-04-22T18:47:46.642Z,21.42
2018-04-22T18:50:14.998Z,21.66
2018-04-22T18:52:43.338Z,21.64
2018-04-22T18:55:11.679Z,21.83
2018-04-22T18:57:39.971Z,22.07
2018-04-22T19:00:08.835Z,21.85
2018-04-22T19:02:37.571Z,21.64
2018-04-22T19:05:05.875Z,21.47
2018-04-22T19:07:34.626Z,21.17
2018-04-22T19:10:02.920Z,21.16
2018-04-22T19:12:31.211Z,21.09
2018-04-22T19:14:59.547Z,21.03
2018-04-22T19:17:27.836Z,20.95
2018-04-22T19:19:57.139Z,21.09
2018-04-22T19:22:25.238Z,21.44
2018-04-22T19:24:53.571Z,21.84
2018-04-22T19:27:21.858Z,21.97
2018-04-22T19:29:52.137Z,22.05
2018-04-22T19:32:20.427Z,21.88
2018-04-22T19:34:48.754Z,21.88
2018-04-22T19:37:17.223Z,21.84
2018-04-22T19:39:45.632Z,21.61
2018-04-22T19:42:13.919Z,21.45
2018-04-22T19:44:43.227Z,21.40
2018-04-22T19:47:11.511Z,21.40
2018-04-22T19:49:40.042Z,21.28
2018-04-22T19:52:09.101Z,21.15
2018-04-22T19:54:37.583Z,21.09
2018-04-22T19:57:05.892Z,20.88
2018-04-22T19:59:34.295Z,20.66
2018-04-22T20:02:02.599Z,20.58
2018-04-22T20:04:32.155Z,20.32
2018-04-22T20:07:00.546Z,20.16
2018-04-22T20:09:28.869Z,20.09
2018-04-22T20:11:58.784Z,19.91
2018-04-22T20:14:27.690Z,19.79
2018-04-22T20:16:56.534Z,19.61
2018-04-22T20:19:24.816Z,19.64
2018-04-22T20:21:53.436Z,19.53
2018-04-22T20:24:21.724Z,19.37
2018-04-22T20:26:50.011Z,19.62
2018-04-22T20:29:18.319Z,19.66
2018-04-22T20:31:46.603Z,19.47
2018-04-22T20:34:14.923Z,19.25
2018-04-22T20:36:43.255Z,19.01
2018-04-22T20:39:11.545Z,18.72
2018-04-22T20:41:39.847Z,18.70
2018-04-22T20:44:08.224Z,18.63
2018-04-22T20:46:39.334Z,18.41
2018-04-22T20:49:07.799Z,18.35
2018-04-22T20:51:36.359Z,18.28
2018-04-22T20:54:05.263Z,18.35
2018-04-22T20:56:34.343Z,18.14
2018-04-22T20:59:02.672Z,18.02
2018-04-22T21:01:30.996Z,17.78
2018-04-22T21:03:59.278Z,17.89
2018-04-22T21:06:27.563Z,17.76
2018-04-22T21:08:56.190Z,17.59
2018-04-22T21:11:25.235Z,17.52
2018-04-22T21:13:53.524Z,17.75
2018-04-22T21:16:21.855Z,17.69
2018-04-22T21:18:50.143Z,17.85
2018-04-22T21:21:18.436Z,17.80
2018-04-22T21:23:46.763Z,17.79
2018-04-22T21:26:15.186Z,17.59
2018-04-22T21:28:43.957Z,17.52
2018-04-22T21:31:12.755Z,17.52
2018-04-22T21:33:41.098Z,17.46
2018-04-22T21:36:09.995Z,17.34
2018-04-22T21:38:38.871Z,17.31
2018-04-22T21:41:07.332Z,17.22
2018-04-22T21:43:35.671Z,17.07
2018-04-22T21:46:04.447Z,17.00
2018-04-22T21:48:32.979Z,17.13
2018-04-22T21:51:01.291Z,17.04
2018-04-22T21:53:29.581Z,16.90
2018-04-22T21:55:59.244Z,16.93
2018-04-22T21:58:28.307Z,16.75
2018-04-22T22:00:56.863Z,16.64
2018-04-22T22:03:25.444Z,16.91
2018-04-22T22:05:53.770Z,16.99
2018-04-22T22:08:22.050Z,17.04
2018-04-22T22:10:50.350Z,17.07
2018-04-22T22:13:18.685Z,17.12
2018-04-22T22:15:47.463Z,17.23
2018-04-22T22:18:15.747Z,17.40
2018-04-22T22:20:44.594Z,17.42
2018-04-22T22:23:13.645Z,17.65
2018-04-22T22:25:41.927Z,17.67
2018-04-22T22:28:10.263Z,17.76
2018-04-22T22:30:38.542Z,17.86
2018-04-22T22:33:06.823Z,17.78
2018-04-22T22:35:35.136Z,17.74
2018-04-22T22:38:04.013Z,17.68
2018-04-22T22:40:32.338Z,17.81
2018-04-22T22:43:00.669Z,17.88
2018-04-22T22:45:28.946Z,17.90
2018-04-22T22:47:57.935Z,18.03
2018-04-22T22:50:26.343Z,18.18
2018-04-22T22:52:54.631Z,18.17
2018-04-22T22:55:22.967Z,18.12
2018-04-22T22:57:51.870Z,18.03
2018-04-22T23:00:22.903Z,18.08
2018-04-22T23:02:51.924Z,17.90
2018-04-22T23:05:20.243Z,17.94
2018-04-22T23:07:48.543Z,17.99
2018-04-22T23:10:16.854Z,18.00
2018-04-22T23:12:45.550Z,18.08
2018-04-22T23:15:14.163Z,18.02
2018-04-22T23:17:42.482Z,17.82
2018-04-22T23:20:11.440Z,17.65
2018-04-22T23:22:39.721Z,17.75
2018-04-22T23:25:08.008Z,17.33
2018-04-22T23:27:36.347Z,17.27
2018-04-22T23:30:04.631Z,17.34
2018-04-22T23:32:32.914Z,17.25
2018-04-22T23:35:01.892Z,17.19
2018-04-22T23:37:30.659Z,17.35
2018-04-22T23:39:58.987Z,17.37
2018-04-22T23:42:27.279Z,17.08
2018-04-22T23:44:55.566Z,16.96
2018-04-22T23:47:23.979Z,17.01
2018-04-22T23:49:52.474Z,17.08
2018-04-22T23:52:20.763Z,17.06
2018-04-22T23:54:49.088Z,17.19
2018-04-22T23:57:18.103Z,17.25
2018-04-22T23:59:46.798Z,16.93
